sensor_id;sensor_type;location;lat;lon;timestamp;pressure;altitude;pressure_sealevel;temperature;humidity
11041;BME280;5573;49.592;8.662;2023-08-24T00:00:26;100037.38;;;20.35;64.36
11041;BME280;5573;49.592;8.662;2023-08-24T00:02:54;100029.00;;;20.31;64.41
11041;BME280;5573;49.592;8.662;2023-08-24T00:05:22;100028.66;;;20.22;64.59
11041;BME280;5573;49.592;8.662;2023-08-24T00:07:52;100025.97;;;20.22;64.58
11041;BME280;5573;49.592;8.662;2023-08-24T00:10:19;100027.56;;;20.03;65.68
11041;BME280;5573;49.592;8.662;2023-08-24T00:12:47;100024.84;;;20.03;65.90
11041;BME280;5573;49.592;8.662;2023-08-24T00:15:15;100021.03;;;19.99;66.54
11041;BME280;5573;49.592;8.662;2023-08-24T00:17:43;100030.47;;;19.81;67.62
11041;BME280;5573;49.592;8.662;2023-08-24T00:20:12;100026.41;;;19.79;67.69
11041;BME280;5573;49.592;8.662;2023-08-24T00:22:40;100018.28;;;19.69;67.74
11041;BME280;5573;49.592;8.662;2023-08-24T00:25:09;100008.81;;;19.61;69.17
11041;BME280;5573;49.592;8.662;2023-08-24T00:27:38;100002.84;;;19.59;68.31
11041;BME280;5573;49.592;8.662;2023-08-24T00:30:07;99984.16;;;19.53;67.83
11041;BME280;5573;49.592;8.662;2023-08-24T00:32:36;99988.56;;;19.69;66.72
11041;BME280;5573;49.592;8.662;2023-08-24T00:35:05;100003.44;;;19.81;66.93
11041;BME280;5573;49.592;8.662;2023-08-24T00:37:34;99992.13;;;19.95;65.64
11041;BME280;5573;49.592;8.662;2023-08-24T00:40:03;99992.91;;;19.95;65.88
11041;BME280;5573;49.592;8.662;2023-08-24T00:42:33;99988.63;;;20.09;65.07
11041;BME280;5573;49.592;8.662;2023-08-24T00:45:01;99993.47;;;20.07;66.07
11041;BME280;5573;49.592;8.662;2023-08-24T00:47:29;100001.31;;;20.14;65.63
11041;BME280;5573;49.592;8.662;2023-08-24T00:49:58;99999.72;;;20.08;66.34
11041;BME280;5573;49.592;8.662;2023-08-24T00:52:29;100009.72;;;20.12;66.48
11041;BME280;5573;49.592;8.662;2023-08-24T00:54:59;100017.81;;;20.07;67.13
11041;BME280;5573;49.592;8.662;2023-08-24T00:57:27;100026.72;;;20.03;67.20
11041;BME280;5573;49.592;8.662;2023-08-24T00:59:59;100042.94;;;19.93;67.20
11041;BME280;5573;49.592;8.662;2023-08-24T01:02:27;100048.63;;;19.96;68.67
11041;BME280;5573;49.592;8.662;2023-08-24T01:04:55;100041.03;;;19.83;69.23
11041;BME280;5573;49.592;8.662;2023-08-24T01:07:23;100049.59;;;19.60;70.40
11041;BME280;5573;49.592;8.662;2023-08-24T01:09:51;100047.44;;;19.67;71.31
11041;BME280;5573;49.592;8.662;2023-08-24T01:12:25;100042.44;;;19.38;71.29
11041;BME280;5573;49.592;8.662;2023-08-24T01:15:04;100035.00;;;19.14;71.51
11041;BME280;5573;49.592;8.662;2023-08-24T01:17:34;100034.66;;;19.00;73.47
11041;BME280;5573;49.592;8.662;2023-08-24T01:20:04;100044.56;;;18.89;73.93
11041;BME280;5573;49.592;8.662;2023-08-24T01:22:37;100039.06;;;18.74;75.02
11041;BME280;5573;49.592;8.662;2023-08-24T01:25:12;100041.00;;;18.84;75.25
11041;BME280;5573;49.592;8.662;2023-08-24T01:27:45;100031.69;;;18.65;75.14
11041;BME280;5573;49.592;8.662;2023-08-24T01:30:17;100031.66;;;18.60;76.17
11041;BME280;5573;49.592;8.662;2023-08-24T01:32:46;100029.56;;;18.40;76.39
11041;BME280;5573;49.592;8.662;2023-08-24T01:35:14;100029.78;;;18.33;76.94
11041;BME280;5573;49.592;8.662;2023-08-24T01:37:42;100029.03;;;18.38;76.74
11041;BME280;5573;49.592;8.662;2023-08-24T01:40:14;100040.28;;;18.30;77.33
11041;BME280;5573;49.592;8.662;2023-08-24T01:42:50;100031.44;;;18.39;77.04
11041;BME280;5573;49.592;8.662;2023-08-24T01:45:19;100039.53;;;18.34;77.15
11041;BME280;5573;49.592;8.662;2023-08-24T01:47:52;100030.78;;;18.22;77.05
11041;BME280;5573;49.592;8.662;2023-08-24T01:50:21;100027.34;;;18.05;77.21
11041;BME280;5573;49.592;8.662;2023-08-24T01:52:49;100017.53;;;17.94;77.64
11041;BME280;5573;49.592;8.662;2023-08-24T01:55:18;100027.25;;;17.95;78.19
11041;BME280;5573;49.592;8.662;2023-08-24T01:57:47;100022.59;;;18.12;77.65
11041;BME280;5573;49.592;8.662;2023-08-24T02:00:16;100018.00;;;17.86;77.99
11041;BME280;5573;49.592;8.662;2023-08-24T02:02:47;100023.41;;;17.86;77.56
11041;BME280;5573;49.592;8.662;2023-08-24T02:05:15;100009.84;;;17.81;77.76
11041;BME280;5573;49.592;8.662;2023-08-24T02:07:48;100010.88;;;17.75;79.51
11041;BME280;5573;49.592;8.662;2023-08-24T02:10:17;100008.91;;;17.92;80.08
11041;BME280;5573;49.592;8.662;2023-08-24T02:12:45;100000.09;;;17.75;80.19
11041;BME280;5573;49.592;8.662;2023-08-24T02:15:14;99999.66;;;17.61;80.50
11041;BME280;5573;49.592;8.662;2023-08-24T02:17:42;100007.00;;;17.66;80.43
11041;BME280;5573;49.592;8.662;2023-08-24T02:20:11;99990.69;;;17.56;81.21
11041;BME280;5573;49.592;8.662;2023-08-24T02:22:39;99989.31;;;17.75;80.70
11041;BME280;5573;49.592;8.662;2023-08-24T02:25:09;99984.72;;;18.02;79.39
11041;BME280;5573;49.592;8.662;2023-08-24T02:27:37;99980.56;;;17.89;79.54
11041;BME280;5573;49.592;8.662;2023-08-24T02:30:06;99979.63;;;18.01;79.46
11041;BME280;5573;49.592;8.662;2023-08-24T02:32:36;99979.44;;;18.12;79.12
11041;BME280;5573;49.592;8.662;2023-08-24T02:35:04;99976.25;;;18.20;78.84
11041;BME280;5573;49.592;8.662;2023-08-24T02:37:32;99977.81;;;18.11;79.00
11041;BME280;5573;49.592;8.662;2023-08-24T02:40:00;99978.34;;;18.08;79.14
11041;BME280;5573;49.592;8.662;2023-08-24T02:42:30;99985.69;;;18.18;79.03
11041;BME280;5573;49.592;8.662;2023-08-24T02:44:58;99982.50;;;17.94;78.89
11041;BME280;5573;49.592;8.662;2023-08-24T02:47:26;99973.50;;;17.83;78.36
11041;BME280;5573;49.592;8.662;2023-08-24T02:49:55;99972.13;;;17.81;78.46
11041;BME280;5573;49.592;8.662;2023-08-24T02:52:23;99977.28;;;17.82;79.64
11041;BME280;5573;49.592;8.662;2023-08-24T02:54:51;99968.59;;;17.75;80.22
11041;BME280;5573;49.592;8.662;2023-08-24T02:57:19;99973.69;;;17.77;80.15
11041;BME280;5573;49.592;8.662;2023-08-24T02:59:46;99971.31;;;17.80;80.83
11041;BME280;5573;49.592;8.662;2023-08-24T03:02:14;99967.75;;;17.75;80.45
11041;BME280;5573;49.592;8.662;2023-08-24T03:04:42;99937.88;;;17.55;80.39
11041;BME280;5573;49.592;8.662;2023-08-24T03:07:11;99986.81;;;17.95;79.08
11041;BME280;5573;49.592;8.662;2023-08-24T03:09:39;99985.09;;;17.84;79.42
11041;BME280;5573;49.592;8.662;2023-08-24T03:12:08;99982.00;;;17.97;79.38
11041;BME280;5573;49.592;8.662;2023-08-24T03:14:36;99989.88;;;18.04;80.18
11041;BME280;5573;49.592;8.662;2023-08-24T03:17:04;99988.53;;;18.06;80.91
11041;BME280;5573;49.592;8.662;2023-08-24T03:19:34;99969.13;;;18.04;81.17
11041;BME280;5573;49.592;8.662;2023-08-24T03:22:01;99985.44;;;18.19;81.57
11041;BME280;5573;49.592;8.662;2023-08-24T03:24:31;99985.22;;;18.26;81.34
11041;BME280;5573;49.592;8.662;2023-08-24T03:26:59;99983.13;;;18.33;81.58
11041;BME280;5573;49.592;8.662;2023-08-24T03:29:27;99970.50;;;18.38;80.98
11041;BME280;5573;49.592;8.662;2023-08-24T03:31:56;99942.53;;;18.50;80.77
11041;BME280;5573;49.592;8.662;2023-08-24T03:34:24;99916.06;;;18.47;81.16
11041;BME280;5573;49.592;8.662;2023-08-24T03:36:54;99888.19;;;18.73;75.95
11041;BME280;5573;49.592;8.662;2023-08-24T03:39:21;99863.06;;;19.34;72.38
11041;BME280;5573;49.592;8.662;2023-08-24T03:41:50;99836.13;;;19.65;69.75
11041;BME280;5573;49.592;8.662;2023-08-24T03:44:18;99838.81;;;19.85;69.04
11041;BME280;5573;49.592;8.662;2023-08-24T03:47:07;99862.06;;;19.76;69.05
11041;BME280;5573;49.592;8.662;2023-08-24T03:49:35;99855.53;;;19.62;68.97
11041;BME280;5573;49.592;8.662;2023-08-24T03:52:04;99837.69;;;19.51;70.31
11041;BME280;5573;49.592;8.662;2023-08-24T03:54:32;99838.22;;;19.37;70.69
11041;BME280;5573;49.592;8.662;2023-08-24T03:57:01;99851.69;;;19.32;71.00
11041;BME280;5573;49.592;8.662;2023-08-24T03:59:29;99855.75;;;19.30;71.21
11041;BME280;5573;49.592;8.662;2023-08-24T04:01:57;99866.25;;;19.16;71.56
11041;BME280;5573;49.592;8.662;2023-08-24T04:04:28;99858.16;;;19.21;71.36
11041;BME280;5573;49.592;8.662;2023-08-24T04:06:57;99853.31;;;19.23;72.60
11041;BME280;5573;49.592;8.662;2023-08-24T04:09:25;99854.41;;;19.27;71.49
11041;BME280;5573;49.592;8.662;2023-08-24T04:11:53;99871.16;;;19.39;70.33
11041;BME280;5573;49.592;8.662;2023-08-24T04:14:23;99867.16;;;19.47;68.91
11041;BME280;5573;49.592;8.662;2023-08-24T04:16:50;99872.03;;;19.50;70.80
11041;BME280;5573;49.592;8.662;2023-08-24T04:19:18;99866.56;;;19.40;72.51
11041;BME280;5573;49.592;8.662;2023-08-24T04:21:46;99867.81;;;19.07;77.08
11041;BME280;5573;49.592;8.662;2023-08-24T04:24:14;99871.47;;;18.76;78.61
11041;BME280;5573;49.592;8.662;2023-08-24T04:26:42;99876.28;;;18.69;79.81
11041;BME280;5573;49.592;8.662;2023-08-24T04:29:10;99896.28;;;18.68;78.53
11041;BME280;5573;49.592;8.662;2023-08-24T04:31:39;99900.00;;;18.62;79.35
11041;BME280;5573;49.592;8.662;2023-08-24T04:34:08;99906.19;;;18.57;79.03
11041;BME280;5573;49.592;8.662;2023-08-24T04:36:38;99910.84;;;18.67;81.09
11041;BME280;5573;49.592;8.662;2023-08-24T04:39:06;99903.50;;;18.62;81.77
11041;BME280;5573;49.592;8.662;2023-08-24T04:41:34;99894.06;;;18.60;80.34
11041;BME280;5573;49.592;8.662;2023-08-24T04:44:01;99842.81;;;18.65;80.23
11041;BME280;5573;49.592;8.662;2023-08-24T04:46:29;99885.03;;;18.91;80.98
11041;BME280;5573;49.592;8.662;2023-08-24T04:48:59;99882.38;;;18.96;80.13
11041;BME280;5573;49.592;8.662;2023-08-24T04:51:26;99884.00;;;18.97;77.90
11041;BME280;5573;49.592;8.662;2023-08-24T04:53:55;99877.56;;;19.08;76.80
11041;BME280;5573;49.592;8.662;2023-08-24T04:56:23;99877.59;;;19.28;73.28
11041;BME280;5573;49.592;8.662;2023-08-24T04:58:54;99873.66;;;19.56;70.70
11041;BME280;5573;49.592;8.662;2023-08-24T05:01:23;99876.09;;;19.73;70.10
11041;BME280;5573;49.592;8.662;2023-08-24T05:03:52;99873.69;;;19.87;69.10
11041;BME280;5573;49.592;8.662;2023-08-24T05:06:21;99881.00;;;19.91;68.74
11041;BME280;5573;49.592;8.662;2023-08-24T05:08:49;99882.88;;;20.01;67.95
11041;BME280;5573;49.592;8.662;2023-08-24T05:11:18;99882.59;;;20.07;68.56
11041;BME280;5573;49.592;8.662;2023-08-24T05:13:46;99883.13;;;20.14;67.44
11041;BME280;5573;49.592;8.662;2023-08-24T05:16:14;99883.66;;;20.21;66.85
11041;BME280;5573;49.592;8.662;2023-08-24T05:18:42;99886.38;;;20.21;67.57
11041;BME280;5573;49.592;8.662;2023-08-24T05:21:10;99897.75;;;20.33;66.97
11041;BME280;5573;49.592;8.662;2023-08-24T05:23:39;99913.47;;;20.31;68.75
11041;BME280;5573;49.592;8.662;2023-08-24T05:26:07;99932.41;;;20.42;67.22
11041;BME280;5573;49.592;8.662;2023-08-24T05:28:35;99950.81;;;20.40;68.97
11041;BME280;5573;49.592;8.662;2023-08-24T05:31:03;99977.56;;;20.36;71.16
11041;BME280;5573;49.592;8.662;2023-08-24T05:33:31;100002.19;;;20.29;70.82
11041;BME280;5573;49.592;8.662;2023-08-24T05:35:59;100014.59;;;20.15;71.73
11041;BME280;5573;49.592;8.662;2023-08-24T05:38:28;100017.25;;;19.95;73.25
11041;BME280;5573;49.592;8.662;2023-08-24T05:40:57;100044.28;;;19.90;74.19
11041;BME280;5573;49.592;8.662;2023-08-24T05:43:25;100048.88;;;19.84;74.38
11041;BME280;5573;49.592;8.662;2023-08-24T05:45:53;100071.00;;;19.76;74.85
11041;BME280;5573;49.592;8.662;2023-08-24T05:48:21;100081.28;;;19.74;74.33
11041;BME280;5573;49.592;8.662;2023-08-24T05:50:48;100088.03;;;19.72;73.83
11041;BME280;5573;49.592;8.662;2023-08-24T05:53:16;100096.97;;;19.72;73.94
11041;BME280;5573;49.592;8.662;2023-08-24T05:55:44;100090.75;;;19.82;73.39
11041;BME280;5573;49.592;8.662;2023-08-24T05:58:14;100083.78;;;19.96;72.64
11041;BME280;5573;49.592;8.662;2023-08-24T06:00:42;100082.72;;;20.07;71.53
11041;BME280;5573;49.592;8.662;2023-08-24T06:03:09;100068.69;;;20.15;72.19
11041;BME280;5573;49.592;8.662;2023-08-24T06:05:37;100054.44;;;20.35;72.32
11041;BME280;5573;49.592;8.662;2023-08-24T06:08:05;100041.16;;;20.49;72.21
11041;BME280;5573;49.592;8.662;2023-08-24T06:10:33;100031.44;;;20.53;71.70
11041;BME280;5573;49.592;8.662;2023-08-24T06:13:01;99985.69;;;20.36;72.41
11041;BME280;5573;49.592;8.662;2023-08-24T06:15:30;100005.19;;;20.53;73.37
11041;BME280;5573;49.592;8.662;2023-08-24T06:17:58;99999.75;;;20.68;72.68
11041;BME280;5573;49.592;8.662;2023-08-24T06:20:27;99993.53;;;20.68;71.41
11041;BME280;5573;49.592;8.662;2023-08-24T06:22:55;99997.84;;;20.79;72.28
11041;BME280;5573;49.592;8.662;2023-08-24T06:25:23;100001.63;;;20.93;73.08
11041;BME280;5573;49.592;8.662;2023-08-24T06:27:51;100010.84;;;20.87;71.86
11041;BME280;5573;49.592;8.662;2023-08-24T06:30:19;100006.75;;;20.90;70.75
11041;BME280;5573;49.592;8.662;2023-08-24T06:32:48;99995.66;;;20.91;69.41
11041;BME280;5573;49.592;8.662;2023-08-24T06:35:16;99973.41;;;20.99;68.43
11041;BME280;5573;49.592;8.662;2023-08-24T06:37:44;99976.81;;;21.40;67.92
11041;BME280;5573;49.592;8.662;2023-08-24T06:40:12;99968.78;;;21.25;67.34
11041;BME280;5573;49.592;8.662;2023-08-24T06:42:41;99957.13;;;21.24;68.66
11041;BME280;5573;49.592;8.662;2023-08-24T06:45:10;99952.28;;;21.21;67.35
11041;BME280;5573;49.592;8.662;2023-08-24T06:47:38;99938.97;;;21.25;67.81
11041;BME280;5573;49.592;8.662;2023-08-24T06:50:08;99937.94;;;21.16;67.37
11041;BME280;5573;49.592;8.662;2023-08-24T06:52:36;99932.25;;;21.12;67.54
11041;BME280;5573;49.592;8.662;2023-08-24T06:55:05;99928.44;;;21.03;69.09
11041;BME280;5573;49.592;8.662;2023-08-24T06:57:33;99927.34;;;21.19;69.22
11041;BME280;5573;49.592;8.662;2023-08-24T07:00:01;99927.28;;;21.35;68.20
11041;BME280;5573;49.592;8.662;2023-08-24T07:02:33;99934.56;;;21.39;69.04
11041;BME280;5573;49.592;8.662;2023-08-24T07:05:02;99935.41;;;21.35;70.87
11041;BME280;5573;49.592;8.662;2023-08-24T07:07:33;99935.66;;;21.43;70.56
11041;BME280;5573;49.592;8.662;2023-08-24T07:10:01;99929.72;;;21.31;70.89
11041;BME280;5573;49.592;8.662;2023-08-24T07:12:30;99934.97;;;21.12;72.04
11041;BME280;5573;49.592;8.662;2023-08-24T07:14:57;99932.53;;;20.96;72.67
11041;BME280;5573;49.592;8.662;2023-08-24T07:17:25;99929.88;;;20.91;73.17
11041;BME280;5573;49.592;8.662;2023-08-24T07:19:53;99932.19;;;21.22;73.44
11041;BME280;5573;49.592;8.662;2023-08-24T07:22:21;99931.97;;;21.68;71.27
11041;BME280;5573;49.592;8.662;2023-08-24T07:24:50;99927.25;;;22.22;69.64
11041;BME280;5573;49.592;8.662;2023-08-24T07:27:19;99917.22;;;22.23;68.31
11041;BME280;5573;49.592;8.662;2023-08-24T07:29:47;99923.13;;;22.59;68.49
11041;BME280;5573;49.592;8.662;2023-08-24T07:32:15;99935.06;;;22.87;68.17
11041;BME280;5573;49.592;8.662;2023-08-24T07:34:43;99942.59;;;23.18;67.18
11041;BME280;5573;49.592;8.662;2023-08-24T07:37:11;99940.69;;;23.38;65.68
11041;BME280;5573;49.592;8.662;2023-08-24T07:39:39;99935.31;;;23.75;64.04
11041;BME280;5573;49.592;8.662;2023-08-24T07:42:08;99942.94;;;24.10;63.46
11041;BME280;5573;49.592;8.662;2023-08-24T07:44:36;99945.53;;;24.21;61.73
11041;BME280;5573;49.592;8.662;2023-08-24T07:47:04;99965.50;;;24.48;57.96
11041;BME280;5573;49.592;8.662;2023-08-24T07:49:32;99964.22;;;24.73;56.45
11041;BME280;5573;49.592;8.662;2023-08-24T07:51:59;99970.19;;;24.75;57.26
11041;BME280;5573;49.592;8.662;2023-08-24T07:54:27;99963.78;;;24.98;53.35
11041;BME280;5573;49.592;8.662;2023-08-24T07:56:55;99960.66;;;25.05;57.52
11041;BME280;5573;49.592;8.662;2023-08-24T07:59:24;99989.63;;;24.55;61.18
11041;BME280;5573;49.592;8.662;2023-08-24T08:01:52;99998.22;;;24.62;62.60
11041;BME280;5573;49.592;8.662;2023-08-24T08:04:20;99992.75;;;24.62;63.98
11041;BME280;5573;49.592;8.662;2023-08-24T08:06:48;99978.13;;;24.58;63.01
11041;BME280;5573;49.592;8.662;2023-08-24T08:09:16;99973.00;;;24.56;60.41
11041;BME280;5573;49.592;8.662;2023-08-24T08:11:44;99969.13;;;24.44;59.71
11041;BME280;5573;49.592;8.662;2023-08-24T08:14:12;99956.94;;;24.69;59.93
11041;BME280;5573;49.592;8.662;2023-08-24T08:16:41;99943.66;;;24.67;60.28
11041;BME280;5573;49.592;8.662;2023-08-24T08:19:09;99932.16;;;24.70;61.06
11041;BME280;5573;49.592;8.662;2023-08-24T08:21:37;99916.00;;;24.60;55.69
11041;BME280;5573;49.592;8.662;2023-08-24T08:24:05;99898.31;;;24.44;55.74
11041;BME280;5573;49.592;8.662;2023-08-24T08:26:33;99884.56;;;24.35;55.31
11041;BME280;5573;49.592;8.662;2023-08-24T08:29:00;99873.81;;;24.11;57.48
11041;BME280;5573;49.592;8.662;2023-08-24T08:31:28;99865.50;;;24.03;57.75
11041;BME280;5573;49.592;8.662;2023-08-24T08:33:58;99856.13;;;23.95;58.74
11041;BME280;5573;49.592;8.662;2023-08-24T08:36:26;99850.19;;;24.26;56.60
11041;BME280;5573;49.592;8.662;2023-08-24T08:38:53;99842.94;;;24.02;56.83
11041;BME280;5573;49.592;8.662;2023-08-24T08:41:22;99839.91;;;24.04;57.43
11041;BME280;5573;49.592;8.662;2023-08-24T08:43:50;99834.09;;;24.10;57.07
11041;BME280;5573;49.592;8.662;2023-08-24T08:46:19;99840.78;;;24.18;56.12
11041;BME280;5573;49.592;8.662;2023-08-24T08:48:49;99836.97;;;24.19;57.31
11041;BME280;5573;49.592;8.662;2023-08-24T08:51:19;99838.56;;;24.20;58.84
11041;BME280;5573;49.592;8.662;2023-08-24T08:53:47;99839.38;;;24.21;59.35
11041;BME280;5573;49.592;8.662;2023-08-24T08:56:16;99835.47;;;24.54;58.31
11041;BME280;5573;49.592;8.662;2023-08-24T08:58:44;99828.00;;;24.73;57.11
11041;BME280;5573;49.592;8.662;2023-08-24T09:01:13;99826.78;;;24.79;56.71
11041;BME280;5573;49.592;8.662;2023-08-24T09:03:42;99825.00;;;24.75;56.97
11041;BME280;5573;49.592;8.662;2023-08-24T09:06:13;99818.31;;;24.94;57.16
11041;BME280;5573;49.592;8.662;2023-08-24T09:08:42;99821.22;;;25.12;56.82
11041;BME280;5573;49.592;8.662;2023-08-24T09:11:10;99817.78;;;25.55;56.92
11041;BME280;5573;49.592;8.662;2023-08-24T09:13:38;99818.41;;;25.97;56.56
11041;BME280;5573;49.592;8.662;2023-08-24T09:16:07;99814.63;;;26.15;54.36
11041;BME280;5573;49.592;8.662;2023-08-24T09:18:36;99812.28;;;26.22;54.78
11041;BME280;5573;49.592;8.662;2023-08-24T09:21:08;99798.06;;;26.34;54.03
11041;BME280;5573;49.592;8.662;2023-08-24T09:23:37;99810.47;;;26.48;53.80
11041;BME280;5573;49.592;8.662;2023-08-24T09:26:07;99811.03;;;26.68;52.43
11041;BME280;5573;49.592;8.662;2023-08-24T09:28:35;99791.97;;;26.85;52.86
11041;BME280;5573;49.592;8.662;2023-08-24T09:31:05;99793.47;;;27.17;52.05
11041;BME280;5573;49.592;8.662;2023-08-24T09:33:33;99781.69;;;27.08;51.31
11041;BME280;5573;49.592;8.662;2023-08-24T09:36:06;99747.28;;;26.98;51.24
11041;BME280;5573;49.592;8.662;2023-08-24T09:38:34;99752.28;;;27.39;50.33
11041;BME280;5573;49.592;8.662;2023-08-24T09:41:03;99742.94;;;27.57;48.15
11041;BME280;5573;49.592;8.662;2023-08-24T09:43:32;99743.19;;;27.81;50.09
11041;BME280;5573;49.592;8.662;2023-08-24T09:46:00;99737.00;;;28.02;48.22
11041;BME280;5573;49.592;8.662;2023-08-24T09:48:30;99741.50;;;28.15;47.49
11041;BME280;5573;49.592;8.662;2023-08-24T09:51:00;99722.28;;;28.23;47.52
11041;BME280;5573;49.592;8.662;2023-08-24T09:53:33;99716.53;;;28.16;47.74
11041;BME280;5573;49.592;8.662;2023-08-24T09:56:05;99716.09;;;28.35;47.00
11041;BME280;5573;49.592;8.662;2023-08-24T09:58:36;99700.44;;;28.06;47.11
11041;BME280;5573;49.592;8.662;2023-08-24T10:01:04;99712.50;;;28.14;49.11
11041;BME280;5573;49.592;8.662;2023-08-24T10:03:33;99710.25;;;28.16;46.42
11041;BME280;5573;49.592;8.662;2023-08-24T10:06:05;99713.44;;;28.18;48.00
11041;BME280;5573;49.592;8.662;2023-08-24T10:08:36;99692.22;;;28.06;46.54
11041;BME280;5573;49.592;8.662;2023-08-24T10:11:06;99717.47;;;28.50;46.67
11041;BME280;5573;49.592;8.662;2023-08-24T10:13:39;99711.13;;;28.58;47.53
11041;BME280;5573;49.592;8.662;2023-08-24T10:16:08;99715.72;;;28.74;45.11
11041;BME280;5573;49.592;8.662;2023-08-24T10:18:36;99704.38;;;28.84;44.90
11041;BME280;5573;49.592;8.662;2023-08-24T10:21:04;99721.09;;;29.33;42.76
11041;BME280;5573;49.592;8.662;2023-08-24T10:23:34;99715.03;;;29.19;43.58
11041;BME280;5573;49.592;8.662;2023-08-24T10:26:03;99718.03;;;29.26;43.98
11041;BME280;5573;49.592;8.662;2023-08-24T10:28:32;99718.53;;;29.28;42.49
11041;BME280;5573;49.592;8.662;2023-08-24T10:31:02;99714.44;;;29.34;44.91
11041;BME280;5573;49.592;8.662;2023-08-24T10:33:30;99713.34;;;29.47;45.14
11041;BME280;5573;49.592;8.662;2023-08-24T10:36:04;99708.34;;;29.61;44.83
11041;BME280;5573;49.592;8.662;2023-08-24T10:38:35;99703.44;;;29.67;43.99
11041;BME280;5573;49.592;8.662;2023-08-24T10:41:07;99705.50;;;29.58;41.43
11041;BME280;5573;49.592;8.662;2023-08-24T10:43:37;99706.47;;;29.86;42.23
11041;BME280;5573;49.592;8.662;2023-08-24T10:46:11;99701.13;;;30.14;43.46
11041;BME280;5573;49.592;8.662;2023-08-24T10:48:58;99696.34;;;30.11;42.38
11041;BME280;5573;49.592;8.662;2023-08-24T10:51:27;99698.03;;;30.40;42.75
11041;BME280;5573;49.592;8.662;2023-08-24T10:53:58;99687.97;;;30.56;39.84
11041;BME280;5573;49.592;8.662;2023-08-24T10:56:35;99678.03;;;30.79;40.24
11041;BME280;5573;49.592;8.662;2023-08-24T10:59:13;99679.75;;;30.84;40.31
11041;BME280;5573;49.592;8.662;2023-08-24T11:01:43;99679.25;;;30.94;39.60
11041;BME280;5573;49.592;8.662;2023-08-24T11:04:22;99666.84;;;30.60;39.78
11041;BME280;5573;49.592;8.662;2023-08-24T11:06:52;99645.88;;;30.67;38.63
11041;BME280;5573;49.592;8.662;2023-08-24T11:09:21;99656.72;;;31.16;38.78
11041;BME280;5573;49.592;8.662;2023-08-24T11:11:56;99668.44;;;31.41;37.39
11041;BME280;5573;49.592;8.662;2023-08-24T11:14:25;99661.72;;;31.69;37.84
11041;BME280;5573;49.592;8.662;2023-08-24T11:16:57;99669.09;;;31.22;37.21
11041;BME280;5573;49.592;8.662;2023-08-24T11:19:26;99660.38;;;31.20;39.63
11041;BME280;5573;49.592;8.662;2023-08-24T11:21:54;99664.25;;;31.47;37.31
11041;BME280;5573;49.592;8.662;2023-08-24T11:24:22;99664.88;;;31.40;39.64
11041;BME280;5573;49.592;8.662;2023-08-24T11:26:50;99665.56;;;30.82;38.93
11041;BME280;5573;49.592;8.662;2023-08-24T11:29:19;99656.38;;;31.17;38.40
11041;BME280;5573;49.592;8.662;2023-08-24T11:31:47;99660.44;;;31.51;38.88
11041;BME280;5573;49.592;8.662;2023-08-24T11:34:16;99646.22;;;31.34;39.73
11041;BME280;5573;49.592;8.662;2023-08-24T11:36:46;99635.66;;;31.51;40.27
11041;BME280;5573;49.592;8.662;2023-08-24T11:39:15;99629.06;;;31.24;39.49
11041;BME280;5573;49.592;8.662;2023-08-24T11:41:44;99624.22;;;31.06;41.55
11041;BME280;5573;49.592;8.662;2023-08-24T11:44:12;99630.75;;;31.29;37.22
11041;BME280;5573;49.592;8.662;2023-08-24T11:46:56;99620.53;;;31.30;40.07
11041;BME280;5573;49.592;8.662;2023-08-24T11:49:26;99620.91;;;31.44;40.32
11041;BME280;5573;49.592;8.662;2023-08-24T11:51:54;99623.78;;;31.63;40.98
11041;BME280;5573;49.592;8.662;2023-08-24T11:54:22;99623.72;;;31.59;38.03
11041;BME280;5573;49.592;8.662;2023-08-24T11:56:50;99619.47;;;31.18;39.27
11041;BME280;5573;49.592;8.662;2023-08-24T11:59:20;99613.59;;;31.04;41.63
11041;BME280;5573;49.592;8.662;2023-08-24T12:01:48;99607.66;;;31.18;42.29
11041;BME280;5573;49.592;8.662;2023-08-24T12:04:16;99601.19;;;31.26;42.21
11041;BME280;5573;49.592;8.662;2023-08-24T12:06:46;99608.63;;;31.25;43.42
11041;BME280;5573;49.592;8.662;2023-08-24T12:09:13;99611.22;;;31.18;42.10
11041;BME280;5573;49.592;8.662;2023-08-24T12:11:42;99599.81;;;31.20;40.67
11041;BME280;5573;49.592;8.662;2023-08-24T12:14:16;99594.88;;;31.25;41.93
11041;BME280;5573;49.592;8.662;2023-08-24T12:16:45;99595.88;;;31.49;41.08
11041;BME280;5573;49.592;8.662;2023-08-24T12:19:13;99597.91;;;31.36;40.59
11041;BME280;5573;49.592;8.662;2023-08-24T12:21:43;99569.22;;;31.37;37.38
11041;BME280;5573;49.592;8.662;2023-08-24T12:24:13;99577.13;;;31.39;41.10
11041;BME280;5573;49.592;8.662;2023-08-24T12:26:42;99577.66;;;31.44;38.97
11041;BME280;5573;49.592;8.662;2023-08-24T12:29:10;99566.69;;;31.60;37.88
11041;BME280;5573;49.592;8.662;2023-08-24T12:31:42;99571.38;;;31.59;42.07
11041;BME280;5573;49.592;8.662;2023-08-24T12:34:09;99561.06;;;31.72;37.75
11041;BME280;5573;49.592;8.662;2023-08-24T12:36:38;99556.75;;;31.90;35.21
11041;BME280;5573;49.592;8.662;2023-08-24T12:39:08;99546.44;;;31.87;35.35
11041;BME280;5573;49.592;8.662;2023-08-24T12:41:41;99523.59;;;31.67;39.93
11041;BME280;5573;49.592;8.662;2023-08-24T12:44:09;99536.56;;;31.67;43.69
11041;BME280;5573;49.592;8.662;2023-08-24T12:46:40;99539.50;;;31.58;44.65
11041;BME280;5573;49.592;8.662;2023-08-24T12:49:08;99542.75;;;31.17;46.21
11041;BME280;5573;49.592;8.662;2023-08-24T12:51:36;99543.38;;;31.10;49.26
11041;BME280;5573;49.592;8.662;2023-08-24T12:54:06;99539.38;;;31.08;45.62
11041;BME280;5573;49.592;8.662;2023-08-24T12:56:38;99554.66;;;31.21;42.55
11041;BME280;5573;49.592;8.662;2023-08-24T12:59:07;99555.28;;;31.30;40.81
11041;BME280;5573;49.592;8.662;2023-08-24T13:01:36;99543.72;;;31.40;37.50
11041;BME280;5573;49.592;8.662;2023-08-24T13:04:04;99536.06;;;31.49;41.99
11041;BME280;5573;49.592;8.662;2023-08-24T13:06:32;99546.56;;;31.44;46.79
11041;BME280;5573;49.592;8.662;2023-08-24T13:09:00;99543.34;;;31.42;50.39
11041;BME280;5573;49.592;8.662;2023-08-24T13:11:30;99536.63;;;31.39;50.62
11041;BME280;5573;49.592;8.662;2023-08-24T13:13:57;99540.53;;;31.38;48.88
11041;BME280;5573;49.592;8.662;2023-08-24T13:16:27;99534.25;;;31.38;48.61